Time;durP1;ratioP1;P1;durP2;ratioP2;P2;SDS_P1;SDS_P2;PMS_P1;PMS_P2;Temp;Humidity;BMP_temperature;BMP_pressure;BME280_temperature;BME280_humidity;BME280_pressure;Samples;Min_cycle;Max_cycle;Signal;HPM_P1;HPM_P2
2024/01/06 00:02:11;;;;;;;12.02;9.07;;;2.70;99.90;;;;;;5027534;28;20061;-82
2024/01/06 00:04:37;;;;;;;10.60;8.50;;;3.40;99.90;;;;;;5007809;28;20045;-82
2024/01/06 00:07:02;;;;;;;11.32;8.45;;;2.90;99.90;;;;;;5010391;28;20060;-82
2024/01/06 00:09:28;;;;;;;10.00;8.38;;;2.60;99.90;;;;;;5011265;28;20753;-82
2024/01/06 00:11:54;;;;;;;11.02;8.88;;;2.60;99.90;;;;;;5028773;28;20048;-82
2024/01/06 00:14:19;;;;;;;10.43;8.23;;;2.60;99.90;;;;;;5010910;28;20095;-82
2024/01/06 00:16:45;;;;;;;11.55;9.00;;;2.60;99.90;;;;;;5023473;28;20029;-82
2024/01/06 00:19:11;;;;;;;12.18;8.30;;;2.50;99.90;;;;;;5010526;28;20049;-82
2024/01/06 00:21:36;;;;;;;10.57;8.25;;;2.50;99.90;;;;;;5020351;28;20573;-82
2024/01/06 00:24:12;;;;;;;11.63;8.75;;;2.80;99.90;;;;;;5028116;28;20062;-82
2024/01/06 00:26:38;;;;;;;10.93;8.73;;;2.50;99.90;;;;;;5030098;28;20128;-82
2024/01/06 00:29:03;;;;;;;10.73;8.82;;;2.50;99.90;;;;;;5012326;28;20128;-82
2024/01/06 00:31:29;;;;;;;11.20;9.27;;;2.50;99.90;;;;;;4992098;28;20038;-82
2024/01/06 00:33:54;;;;;;;13.93;10.10;;;2.90;99.90;;;;;;5004551;28;20045;-82
2024/01/06 00:36:20;;;;;;;13.55;10.20;;;2.40;99.90;;;;;;5030082;28;20690;-82
2024/01/06 00:38:45;;;;;;;15.45;11.63;;;2.50;99.90;;;;;;5029014;28;20088;-82
2024/01/06 00:41:18;;;;;;;14.02;11.07;;;2.40;99.90;;;;;;5009939;28;20049;-82
2024/01/06 00:43:44;;;;;;;17.70;13.15;;;2.40;99.90;;;;;;5011576;28;20502;-82
2024/01/06 00:46:09;;;;;;;13.90;11.05;;;2.40;99.90;;;;;;4995689;28;20046;-82
2024/01/06 00:48:35;;;;;;;16.98;11.90;;;2.40;99.90;;;;;;4994966;28;20049;-82
2024/01/06 00:51:01;;;;;;;15.48;11.35;;;2.50;99.90;;;;;;5029052;28;20406;-82
2024/01/06 00:53:27;;;;;;;16.33;11.57;;;2.50;99.90;;;;;;5010917;28;20041;-82
2024/01/06 00:55:52;;;;;;;15.95;11.38;;;2.40;99.90;;;;;;5029028;28;20045;-82
2024/01/06 00:58:18;;;;;;;15.60;11.75;;;2.40;99.90;;;;;;4993834;28;20046;-82
2024/01/06 01:00:44;;;;;;;14.75;11.32;;;2.60;99.90;;;;;;4990520;28;20045;-82
2024/01/06 01:03:09;;;;;;;16.08;12.00;;;2.50;99.90;;;;;;4988870;28;20077;-82
2024/01/06 01:05:35;;;;;;;15.43;11.43;;;2.50;99.90;;;;;;4967566;28;20459;-82
2024/01/06 01:08:00;;;;;;;14.50;11.07;;;2.50;99.90;;;;;;4974319;28;20484;-82
2024/01/06 01:10:26;;;;;;;16.35;11.95;;;2.50;99.90;;;;;;4986743;28;20042;-82
2024/01/06 01:12:54;;;;;;;14.27;10.52;;;2.50;99.90;;;;;;4987386;28;20053;-82
2024/01/06 01:15:21;;;;;;;14.70;10.70;;;2.50;99.90;;;;;;4984587;28;20419;-82
2024/01/06 01:17:46;;;;;;;14.35;10.68;;;2.50;99.90;;;;;;5003398;28;20046;-81
2024/01/06 01:20:12;;;;;;;13.85;9.93;;;2.40;99.90;;;;;;4992155;28;20048;-81
2024/01/06 01:22:38;;;;;;;14.02;10.75;;;2.40;99.90;;;;;;4985502;28;20048;-82
2024/01/06 01:25:07;;;;;;;13.48;10.40;;;2.40;99.90;;;;;;4987521;28;20054;-82
2024/01/06 01:27:36;;;;;;;12.05;9.20;;;2.30;99.90;;;;;;4969728;28;20050;-81
2024/01/06 01:30:02;;;;;;;12.82;9.50;;;2.30;99.90;;;;;;4986537;28;20507;-82
2024/01/06 01:32:27;;;;;;;12.23;9.77;;;2.40;99.90;;;;;;4986483;28;20051;-81
2024/01/06 01:34:53;;;;;;;13.25;9.63;;;2.30;99.90;;;;;;5003478;28;20034;-82
2024/01/06 01:37:19;;;;;;;13.90;10.68;;;2.30;99.90;;;;;;4989931;28;20218;-82
2024/01/06 01:39:45;;;;;;;12.80;9.90;;;2.30;99.90;;;;;;4989345;28;20995;-82
2024/01/06 01:42:10;;;;;;;13.50;10.30;;;2.30;99.90;;;;;;4986327;28;20042;-81
2024/01/06 01:44:36;;;;;;;14.32;11.13;;;2.30;99.90;;;;;;4986563;28;20057;-81
2024/01/06 01:47:05;;;;;;;14.50;10.57;;;2.30;99.90;;;;;;4986662;28;20134;-81
2024/01/06 01:49:30;;;;;;;13.23;9.85;;;2.30;99.90;;;;;;4973520;28;20050;-81
2024/01/06 01:51:56;;;;;;;15.02;9.95;;;2.30;99.90;;;;;;4994867;28;20065;-81
2024/01/06 01:54:22;;;;;;;14.85;10.77;;;2.30;99.90;;;;;;4981722;28;20485;-82
2024/01/06 01:56:48;;;;;;;15.07;11.50;;;2.30;99.90;;;;;;4967895;28;20059;-81
2024/01/06 01:59:16;;;;;;;18.30;12.45;;;2.20;99.90;;;;;;4959165;28;20046;-81
2024/01/06 02:01:42;;;;;;;16.00;11.05;;;2.20;99.90;;;;;;4997666;28;20053;-81
2024/01/06 02:04:12;;;;;;;17.20;11.55;;;2.20;99.90;;;;;;5009676;28;20056;-81
2024/01/06 02:06:38;;;;;;;17.70;12.00;;;2.30;99.90;;;;;;5027088;28;20567;-81
2024/01/06 02:09:04;;;;;;;16.33;11.50;;;2.20;99.90;;;;;;5026263;28;20037;-81
2024/01/06 02:11:29;;;;;;;17.45;12.45;;;2.20;99.90;;;;;;5027427;28;20038;-81
2024/01/06 02:13:55;;;;;;;16.83;11.40;;;2.20;99.90;;;;;;5006262;28;20103;-81
2024/01/06 02:16:21;;;;;;;16.40;12.00;;;2.30;99.90;;;;;;5028458;28;21206;-81
2024/01/06 02:18:46;;;;;;;17.58;12.43;;;2.20;99.90;;;;;;5026928;28;20049;-80
2024/01/06 02:21:14;;;;;;;17.70;11.95;;;2.20;99.90;;;;;;5008907;28;20080;-80
2024/01/06 02:23:39;;;;;;;15.48;10.55;;;2.20;99.90;;;;;;5008324;28;20046;-81
2024/01/06 02:26:06;;;;;;;17.05;12.45;;;2.20;99.90;;;;;;5008786;28;20096;-81
2024/01/06 02:28:31;;;;;;;14.88;11.05;;;2.20;99.90;;;;;;5032237;28;20049;-81
2024/01/06 02:30:57;;;;;;;15.05;10.88;;;2.40;99.90;;;;;;5015209;28;20487;-81
2024/01/06 02:33:24;;;;;;;14.75;10.50;;;2.20;99.90;;;;;;5008083;28;20076;-81
2024/01/06 02:35:49;;;;;;;14.15;9.82;;;2.10;99.90;;;;;;5008649;28;20060;-81
2024/01/06 02:38:15;;;;;;;15.98;10.57;;;2.10;99.90;;;;;;4989233;28;20042;-80
2024/01/06 02:40:42;;;;;;;13.95;10.38;;;2.40;99.90;;;;;;5005204;28;20053;-81
2024/01/06 02:43:08;;;;;;;16.33;10.90;;;2.10;99.90;;;;;;5008277;28;20053;-81
2024/01/06 02:45:34;;;;;;;14.57;10.68;;;2.10;99.90;;;;;;5024560;28;20059;-81
2024/01/06 02:48:00;;;;;;;13.93;9.98;;;2.00;99.90;;;;;;4997950;28;20049;-81
2024/01/06 02:50:25;;;;;;;13.32;10.02;;;2.00;99.90;;;;;;5009154;28;20041;-80
2024/01/06 02:52:51;;;;;;;13.57;10.02;;;2.00;99.90;;;;;;4994660;28;20049;-82
2024/01/06 02:55:16;;;;;;;15.73;10.77;;;2.00;99.90;;;;;;5040910;28;20514;-81
2024/01/06 02:57:42;;;;;;;14.38;9.90;;;2.00;99.90;;;;;;5037119;28;20478;-82
2024/01/06 03:00:08;;;;;;;18.42;11.32;;;2.00;99.90;;;;;;5030940;28;20045;-81
2024/01/06 03:02:35;;;;;;;16.60;10.43;;;2.00;99.90;;;;;;5029749;28;20089;-81
2024/01/06 03:05:01;;;;;;;14.05;10.45;;;2.00;99.90;;;;;;5011624;28;20064;-81
2024/01/06 03:07:27;;;;;;;16.33;11.50;;;2.00;99.90;;;;;;5011673;28;20073;-81
2024/01/06 03:09:52;;;;;;;16.63;10.93;;;1.90;99.90;;;;;;5012739;28;20756;-81
2024/01/06 03:12:18;;;;;;;15.38;11.00;;;2.00;99.90;;;;;;5012020;28;20053;-81
2024/01/06 03:14:43;;;;;;;16.35;11.30;;;1.90;99.90;;;;;;4994077;28;20049;-81
2024/01/06 03:17:10;;;;;;;17.13;12.07;;;1.90;99.90;;;;;;5008073;28;20660;-81
2024/01/06 03:19:36;;;;;;;17.20;11.18;;;1.90;99.90;;;;;;4995508;28;20046;-81
2024/01/06 03:22:02;;;;;;;15.65;10.48;;;1.90;99.90;;;;;;4984503;28;20054;-81
2024/01/06 03:24:27;;;;;;;17.52;12.02;;;1.90;99.90;;;;;;4991177;28;20483;-81
2024/01/06 03:26:53;;;;;;;16.83;11.60;;;1.80;99.90;;;;;;5011281;28;20049;-81
2024/01/06 03:29:19;;;;;;;20.10;12.65;;;1.80;99.90;;;;;;5013381;28;20049;-81
2024/01/06 03:31:45;;;;;;;18.13;12.23;;;1.80;99.90;;;;;;5002884;28;20498;-81
2024/01/06 03:34:11;;;;;;;18.15;12.18;;;1.90;99.90;;;;;;5010684;28;20049;-82
2024/01/06 03:36:37;;;;;;;22.38;13.23;;;1.90;99.90;;;;;;4995162;28;20076;-81
2024/01/06 03:39:03;;;;;;;20.17;12.88;;;1.80;99.90;;;;;;5011190;28;20073;-82
2024/01/06 03:41:28;;;;;;;21.80;13.57;;;1.80;99.90;;;;;;5012687;28;20069;-81
2024/01/06 03:43:54;;;;;;;23.42;13.75;;;1.80;99.90;;;;;;5029061;28;20091;-81
2024/01/06 03:46:19;;;;;;;21.50;13.55;;;1.90;99.90;;;;;;5011296;28;20549;-81
2024/01/06 03:48:45;;;;;;;17.60;12.05;;;1.90;99.90;;;;;;5029092;28;20084;-81
2024/01/06 03:51:12;;;;;;;20.33;12.90;;;1.90;99.90;;;;;;5028978;28;20046;-81
2024/01/06 03:53:38;;;;;;;18.42;12.88;;;2.20;99.90;;;;;;5010176;28;20495;-82
2024/01/06 03:56:04;;;;;;;19.67;11.98;;;1.80;99.90;;;;;;5011510;28;20048;-81
2024/01/06 03:58:29;;;;;;;17.15;12.20;;;1.70;99.90;;;;;;5011564;28;20042;-82
2024/01/06 04:00:55;;;;;;;20.25;12.07;;;1.80;99.90;;;;;;5028004;28;20565;-81
2024/01/06 04:03:21;;;;;;;22.50;13.07;;;1.70;99.90;;;;;;5009186;28;20419;-82
2024/01/06 04:05:46;;;;;;;19.95;13.05;;;1.70;99.90;;;;;;5019211;28;20053;-81
2024/01/06 04:08:12;;;;;;;22.45;13.18;;;1.80;99.90;;;;;;5017683;28;20053;-81
2024/01/06 04:10:37;;;;;;;19.30;12.80;;;1.80;99.90;;;;;;5009991;28;20471;-81
2024/01/06 04:13:04;;;;;;;21.75;12.55;;;1.80;99.90;;;;;;5010764;28;20049;-81
2024/01/06 04:15:29;;;;;;;22.90;13.13;;;1.70;99.90;;;;;;5010297;28;20065;-81
2024/01/06 04:17:55;;;;;;;22.05;12.65;;;1.70;99.90;;;;;;4994886;28;20521;-81
2024/01/06 04:20:21;;;;;;;19.33;13.07;;;1.70;99.90;;;;;;5005489;28;20096;-81
2024/01/06 04:22:46;;;;;;;21.17;13.27;;;1.70;99.90;;;;;;4999121;28;20041;-81
2024/01/06 04:25:12;;;;;;;24.10;12.88;;;1.70;99.90;;;;;;4995130;28;20464;-81
2024/01/06 04:27:40;;;;;;;21.23;12.80;;;1.70;99.90;;;;;;5001060;28;20372;-81
2024/01/06 04:30:06;;;;;;;18.63;13.25;;;1.70;99.90;;;;;;5004823;28;20045;-81
2024/01/06 04:32:32;;;;;;;22.23;12.65;;;1.70;99.90;;;;;;4994098;28;20091;-81
2024/01/06 04:34:57;;;;;;;20.13;12.38;;;1.70;99.90;;;;;;5028985;28;20033;-81
2024/01/06 04:37:23;;;;;;;21.33;12.90;;;1.70;99.90;;;;;;5007151;28;20041;-82
2024/01/06 04:39:49;;;;;;;19.75;13.00;;;1.70;99.90;;;;;;5027669;28;20072;-82
2024/01/06 04:42:15;;;;;;;19.00;12.68;;;1.70;99.90;;;;;;5010147;28;20088;-81
2024/01/06 04:44:40;;;;;;;19.70;13.07;;;1.60;99.90;;;;;;5027139;28;20037;-81
2024/01/06 04:47:06;;;;;;;19.45;11.93;;;1.60;99.90;;;;;;5010229;28;20095;-81
2024/01/06 04:49:32;;;;;;;16.52;11.32;;;2.10;99.90;;;;;;5009755;28;20037;-82
2024/01/06 04:51:57;;;;;;;18.98;11.35;;;1.60;99.90;;;;;;4991739;28;20055;-81
2024/01/06 04:54:23;;;;;;;17.52;10.70;;;1.60;99.90;;;;;;4993265;28;20061;-81
2024/01/06 04:56:48;;;;;;;19.38;11.13;;;1.60;99.90;;;;;;5010227;28;20064;-81
2024/01/06 04:59:14;;;;;;;17.63;11.90;;;1.60;99.90;;;;;;5026308;28;20055;-81
2024/01/06 05:01:39;;;;;;;17.48;11.27;;;1.60;99.90;;;;;;5027825;28;20392;-81
2024/01/06 05:04:05;;;;;;;16.08;10.68;;;1.60;99.90;;;;;;5009320;28;20054;-81
2024/01/06 05:06:31;;;;;;;19.10;11.85;;;1.60;99.90;;;;;;4996393;28;20041;-81
2024/01/06 05:08:57;;;;;;;16.80;11.40;;;1.70;99.90;;;;;;4992422;28;20045;-81
2024/01/06 05:11:22;;;;;;;17.90;11.32;;;1.60;99.90;;;;;;5009739;28;20060;-81
2024/01/06 05:13:48;;;;;;;20.40;12.30;;;1.60;99.90;;;;;;4992762;28;20049;-81
2024/01/06 05:16:13;;;;;;;19.35;11.52;;;1.50;99.90;;;;;;5008862;28;20137;-81
2024/01/06 05:18:39;;;;;;;16.27;10.88;;;1.50;99.90;;;;;;5009410;28;20353;-81
2024/01/06 05:21:06;;;;;;;18.13;10.70;;;1.50;99.90;;;;;;5010085;28;20753;-81
2024/01/06 05:23:31;;;;;;;17.27;10.30;;;1.50;99.90;;;;;;5014745;28;20407;-81
2024/01/06 05:25:57;;;;;;;15.10;10.25;;;1.50;99.90;;;;;;4993894;28;20041;-81
2024/01/06 05:28:22;;;;;;;17.65;11.13;;;1.50;99.90;;;;;;4991627;28;20057;-81
2024/01/06 05:30:48;;;;;;;19.23;10.88;;;1.50;99.90;;;;;;5009718;28;20111;-81
2024/01/06 05:33:15;;;;;;;18.85;10.90;;;1.40;99.90;;;;;;5009758;28;20042;-80
2024/01/06 05:35:41;;;;;;;16.73;10.93;;;1.50;99.90;;;;;;5027819;28;20084;-81
2024/01/06 05:38:07;;;;;;;16.83;10.63;;;1.80;99.90;;;;;;5013530;28;20107;-81
2024/01/06 05:40:33;;;;;;;16.65;10.07;;;1.50;99.90;;;;;;4993613;28;20056;-81
2024/01/06 05:42:59;;;;;;;18.15;10.50;;;1.40;99.90;;;;;;5005755;28;20042;-81
2024/01/06 05:45:25;;;;;;;16.85;10.43;;;1.40;99.90;;;;;;5010018;28;20038;-81
2024/01/06 05:47:51;;;;;;;15.65;10.38;;;1.40;99.90;;;;;;4992267;28;20042;-81
2024/01/06 05:50:17;;;;;;;16.80;11.18;;;1.40;99.90;;;;;;5010618;28;20064;-81
2024/01/06 05:52:43;;;;;;;15.55;9.93;;;1.40;99.90;;;;;;4992677;28;20071;-81
2024/01/06 05:55:09;;;;;;;16.40;10.90;;;1.30;99.90;;;;;;5026761;28;20042;-81
2024/01/06 05:57:35;;;;;;;17.50;11.18;;;1.40;99.90;;;;;;5006099;28;20057;-81
2024/01/06 06:00:00;;;;;;;15.35;10.50;;;1.40;99.90;;;;;;5005874;28;20049;-81
2024/01/06 06:02:26;;;;;;;15.60;10.00;;;1.40;99.90;;;;;;5008048;28;20045;-81
2024/01/06 06:04:52;;;;;;;15.23;10.07;;;1.40;99.90;;;;;;5032300;28;20095;-81
2024/01/06 06:07:18;;;;;;;15.30;10.38;;;1.40;99.90;;;;;;5042014;28;20041;-81
2024/01/06 06:09:47;;;;;;;17.60;11.35;;;1.40;99.90;;;;;;5025624;28;20045;-81
2024/01/06 06:12:13;;;;;;;18.13;10.80;;;1.40;99.90;;;;;;5024272;28;20403;-81
2024/01/06 06:14:38;;;;;;;17.55;11.45;;;1.40;99.90;;;;;;5025774;28;20037;-81
2024/01/06 06:17:04;;;;;;;18.73;11.95;;;1.40;99.90;;;;;;5026217;28;20073;-81
2024/01/06 06:19:30;;;;;;;16.77;11.32;;;1.40;99.90;;;;;;5028246;28;21224;-81
2024/01/06 06:21:56;;;;;;;16.38;10.90;;;1.40;99.90;;;;;;5026120;28;20181;-81
2024/01/06 06:24:22;;;;;;;19.63;11.65;;;1.40;99.90;;;;;;5008141;28;20037;-79
2024/01/06 06:26:47;;;;;;;16.85;10.35;;;1.40;99.90;;;;;;5026754;28;20076;-81
2024/01/06 06:29:13;;;;;;;18.20;11.00;;;1.40;99.90;;;;;;5012572;28;20088;-81
2024/01/06 06:31:38;;;;;;;15.57;10.93;;;1.40;99.90;;;;;;5031435;28;20838;-81
2024/01/06 06:34:04;;;;;;;18.02;11.80;;;1.40;99.90;;;;;;5033685;28;20073;-81
2024/01/06 06:36:30;;;;;;;18.40;11.95;;;1.40;99.90;;;;;;5028956;28;20133;-81
2024/01/06 06:38:57;;;;;;;16.45;11.57;;;1.40;99.90;;;;;;5013154;28;20041;-81
2024/01/06 06:41:23;;;;;;;16.17;10.60;;;1.90;99.90;;;;;;5013204;28;20594;-81
2024/01/06 06:43:49;;;;;;;16.33;10.85;;;1.40;99.90;;;;;;5011433;28;20132;-81
2024/01/06 06:46:15;;;;;;;16.80;10.30;;;1.40;99.90;;;;;;5011947;28;20041;-82
2024/01/06 06:48:40;;;;;;;17.60;11.38;;;1.70;99.90;;;;;;5012352;28;20045;-81
2024/01/06 06:51:06;;;;;;;16.90;10.50;;;1.40;99.90;;;;;;4984311;28;20046;-81
2024/01/06 06:53:32;;;;;;;15.57;9.85;;;1.40;99.90;;;;;;4995924;28;20394;-81
2024/01/06 06:55:57;;;;;;;16.10;10.07;;;1.40;99.90;;;;;;5029640;28;20092;-79
2024/01/06 06:58:23;;;;;;;13.85;9.88;;;1.30;99.90;;;;;;5011141;28;20503;-81
2024/01/06 07:00:49;;;;;;;15.00;9.75;;;1.30;99.90;;;;;;5028357;28;20045;-81
2024/01/06 07:03:15;;;;;;;13.85;10.45;;;1.40;99.90;;;;;;4990731;28;20113;-81
2024/01/06 07:05:41;;;;;;;14.95;10.93;;;1.40;99.90;;;;;;4989673;28;20116;-81
2024/01/06 07:08:07;;;;;;;16.52;11.30;;;1.40;99.90;;;;;;4986971;28;20046;-81
2024/01/06 07:10:33;;;;;;;15.88;10.80;;;1.50;99.90;;;;;;4973395;28;20068;-81
2024/01/06 07:12:58;;;;;;;17.95;11.52;;;1.40;99.90;;;;;;4974093;28;20052;-81
2024/01/06 07:15:24;;;;;;;15.32;10.85;;;1.50;99.90;;;;;;4989835;28;20061;-81
2024/01/06 07:17:50;;;;;;;15.65;11.45;;;1.50;99.90;;;;;;4988889;28;20045;-81
2024/01/06 07:20:15;;;;;;;19.40;11.85;;;1.40;99.90;;;;;;4988876;28;20039;-81
2024/01/06 07:22:41;;;;;;;15.60;10.40;;;1.50;99.90;;;;;;4989229;28;20096;-81
2024/01/06 07:25:07;;;;;;;12.95;10.43;;;1.50;99.90;;;;;;4989601;28;20045;-80
2024/01/06 07:27:33;;;;;;;14.15;10.50;;;1.40;99.90;;;;;;4997810;28;20042;-82
2024/01/06 07:29:59;;;;;;;14.50;10.52;;;1.40;99.90;;;;;;5008193;28;20057;-80
2024/01/06 07:32:25;;;;;;;14.07;10.52;;;1.40;99.90;;;;;;4992871;28;20046;-81
2024/01/06 07:34:50;;;;;;;16.05;10.48;;;1.40;99.90;;;;;;5010482;28;20033;-81
2024/01/06 07:37:16;;;;;;;15.02;10.30;;;1.40;99.90;;;;;;4990684;28;20042;-80
2024/01/06 07:39:42;;;;;;;15.45;11.43;;;1.40;99.90;;;;;;4989419;28;20076;-81
2024/01/06 07:42:09;;;;;;;14.05;10.48;;;1.40;99.90;;;;;;4971406;28;20042;-81
2024/01/06 07:44:35;;;;;;;13.40;10.27;;;1.40;99.90;;;;;;4990962;28;20595;-81
2024/01/06 07:47:02;;;;;;;14.55;10.43;;;1.40;99.90;;;;;;4989567;28;20206;-81
2024/01/06 07:49:27;;;;;;;13.68;10.52;;;1.40;99.90;;;;;;4985580;28;20488;-81
2024/01/06 07:51:53;;;;;;;13.45;9.82;;;1.40;99.90;;;;;;4986646;28;20104;-81
2024/01/06 07:54:18;;;;;;;13.20;9.57;;;1.40;99.90;;;;;;4989154;28;20054;-82
2024/01/06 07:56:47;;;;;;;14.02;10.48;;;1.40;99.90;;;;;;4989554;28;20049;-82
2024/01/06 07:59:12;;;;;;;12.73;9.40;;;1.40;99.90;;;;;;4991622;28;20138;-83
2024/01/06 08:01:38;;;;;;;13.57;9.27;;;1.30;99.90;;;;;;4985389;28;20519;-80
2024/01/06 08:04:04;;;;;;;12.02;9.35;;;1.30;99.90;;;;;;5016144;28;20141;-82
2024/01/06 08:06:29;;;;;;;13.48;10.52;;;1.40;99.90;;;;;;5016199;28;20049;-81
2024/01/06 08:08:55;;;;;;;14.18;10.38;;;1.40;99.90;;;;;;5033733;28;20045;-82
2024/01/06 08:11:21;;;;;;;15.25;10.30;;;1.40;99.90;;;;;;5023624;28;20045;-82
2024/01/06 08:13:46;;;;;;;15.27;9.93;;;1.40;99.90;;;;;;5018956;28;20041;-82
2024/01/06 08:16:12;;;;;;;12.55;9.35;;;1.40;99.90;;;;;;5015799;28;20056;-83
2024/01/06 08:18:38;;;;;;;12.82;9.25;;;1.30;99.90;;;;;;5014320;28;20518;-81
2024/01/06 08:21:04;;;;;;;13.43;9.73;;;1.30;99.90;;;;;;5013615;28;20053;-82
2024/01/06 08:23:29;;;;;;;11.30;8.50;;;1.40;99.90;;;;;;5012156;28;20034;-83
2024/01/06 08:25:55;;;;;;;12.13;8.60;;;1.60;99.90;;;;;;5013560;28;20080;-82
2024/01/06 08:28:23;;;;;;;11.75;8.93;;;1.40;99.90;;;;;;5013744;28;20179;-82
2024/01/06 08:30:49;;;;;;;12.07;8.73;;;1.40;99.90;;;;;;5014108;28;20681;-82
2024/01/06 08:33:14;;;;;;;12.57;9.18;;;1.40;99.90;;;;;;5014155;28;20045;-83
2024/01/06 08:35:40;;;;;;;12.52;9.23;;;1.40;99.90;;;;;;5014719;28;20046;-83
2024/01/06 08:38:09;;;;;;;11.32;8.98;;;1.40;99.90;;;;;;5003880;28;20072;-82
2024/01/06 08:40:37;;;;;;;13.40;9.55;;;1.40;99.90;;;;;;5050808;28;20064;-83
2024/01/06 08:43:03;;;;;;;12.00;9.27;;;1.50;99.90;;;;;;5049176;28;20095;-83
2024/01/06 08:45:29;;;;;;;10.93;8.55;;;1.50;99.90;;;;;;5032140;28;20612;-82
2024/01/06 08:47:54;;;;;;;12.10;9.20;;;1.50;99.90;;;;;;5048212;28;20052;-82
2024/01/06 08:50:20;;;;;;;11.25;9.02;;;1.50;99.90;;;;;;5049628;28;20048;-83
2024/01/06 08:52:46;;;;;;;9.88;7.88;;;1.50;99.90;;;;;;5015853;28;20037;-82
2024/01/06 08:55:11;;;;;;;10.38;8.93;;;1.50;99.90;;;;;;5032723;28;20053;-82
2024/01/06 08:57:37;;;;;;;12.75;9.10;;;1.60;99.90;;;;;;5051135;28;20041;-81
2024/01/06 09:00:04;;;;;;;11.20;8.50;;;1.50;99.90;;;;;;5001021;28;20579;-82
2024/01/06 09:02:29;;;;;;;11.13;9.02;;;1.50;99.90;;;;;;5049463;28;20106;-81
2024/01/06 09:04:57;;;;;;;11.75;8.38;;;1.50;99.90;;;;;;5013019;28;20053;-82
2024/01/06 09:07:23;;;;;;;13.00;9.55;;;1.50;99.90;;;;;;5014226;28;20045;-82
2024/01/06 09:09:48;;;;;;;11.52;9.10;;;1.50;99.90;;;;;;5014269;28;20092;-81
2024/01/06 09:12:14;;;;;;;11.10;8.45;;;1.30;99.90;;;;;;5013063;28;20050;-80
2024/01/06 09:14:40;;;;;;;11.90;9.15;;;1.50;99.90;;;;;;5044627;28;20411;-81
2024/01/06 09:17:06;;;;;;;11.02;8.65;;;1.50;99.90;;;;;;5049479;28;20046;-81
2024/01/06 09:19:31;;;;;;;11.85;8.88;;;1.50;99.90;;;;;;5032556;28;20041;-81
2024/01/06 09:21:57;;;;;;;11.65;8.90;;;;;;;;;;5037080;28;20041;-81
2024/01/06 09:24:23;;;;;;;12.13;9.38;;;;;;;;;;5012728;28;20231;-81
2024/01/06 09:26:52;;;;;;;11.77;9.38;;;;;;;;;;5012125;28;20049;-84
2024/01/06 09:29:19;;;;;;;12.90;9.55;;;;;;;;;;5011319;28;20575;-80
2024/01/06 09:31:45;;;;;;;11.57;8.95;;;;;;;;;;5011249;28;20132;-80
2024/01/06 09:34:12;;;;;;;12.88;9.55;;;;;;;;;;5008683;28;20076;-80
2024/01/06 09:36:38;;;;;;;11.98;9.38;;;;;;;;;;5011425;28;20124;-80
2024/01/06 09:39:04;;;;;;;11.15;8.73;;;;;;;;;;5025567;28;20880;-81
2024/01/06 09:41:30;;;;;;;12.73;8.93;;;;;;;;;;5022851;28;20692;-81
2024/01/06 09:43:56;;;;;;;11.85;8.57;;;;;;;;;;5047320;28;20048;-81
2024/01/06 09:46:26;;;;;;;11.55;8.82;;;;;;;;;;5020559;28;20049;-80
2024/01/06 09:48:53;;;;;;;11.30;9.02;;;;;;;;;;5013977;28;20050;-81
2024/01/06 09:51:19;;;;;;;12.27;9.10;;;;;;;;;;5012780;28;20060;-79
2024/01/06 09:54:07;;;;;;;10.60;8.35;;;;;;;;;;5029154;28;20132;-78
2024/01/06 09:56:34;;;;;;;11.18;8.50;;;;;;;;;;5029235;28;20465;-77
2024/01/06 09:59:00;;;;;;;12.45;9.13;;;;;;;;;;5029083;28;20077;-78
2024/01/06 10:01:26;;;;;;;12.32;9.77;;;;;;;;;;5009048;28;20058;-78
2024/01/06 10:03:52;;;;;;;13.80;10.00;;;;;;;;;;5027682;28;20518;-79
2024/01/06 10:06:20;;;;;;;13.20;10.05;;;;;;;;;;5027714;28;20080;-78
2024/01/06 10:08:49;;;;;;;12.63;9.23;;;;;;;;;;5026777;28;20478;-78
2024/01/06 10:11:15;;;;;;;10.00;8.05;;;;;;;;;;5028494;28;20056;-78
2024/01/06 10:13:41;;;;;;;11.18;9.05;;;;;;;;;;5026352;28;20045;-78
2024/01/06 10:16:07;;;;;;;10.32;7.97;;;;;;;;;;5016289;28;20046;-78
2024/01/06 10:18:35;;;;;;;10.65;8.48;;;;;;;;;;5028785;28;20052;-78
2024/01/06 10:21:04;;;;;;;10.25;8.57;;;;;;;;;;5028644;28;20051;-80
2024/01/06 10:23:32;;;;;;;12.27;9.07;;;;;;;;;;5009105;28;20147;-79
2024/01/06 10:25:58;;;;;;;12.25;8.80;;;;;;;;;;4994168;28;20053;-79
2024/01/06 10:28:24;;;;;;;11.85;9.27;;;;;;;;;;5010328;28;20387;-80
2024/01/06 10:30:53;;;;;;;13.15;9.35;;;;;;;;;;5009591;28;20133;-79
2024/01/06 10:33:20;;;;;;;14.00;9.95;;;;;;;;;;5009434;28;20068;-80
2024/01/06 10:35:47;;;;;;;12.07;9.10;;;;;;;;;;5009775;28;20916;-79
2024/01/06 10:38:13;;;;;;;11.85;8.95;;;;;;;;;;5008948;28;20116;-79
2024/01/06 10:40:39;;;;;;;11.98;9.77;;;;;;;;;;5028063;28;20045;-79
2024/01/06 10:43:06;;;;;;;12.48;9.75;;;;;;;;;;5012548;28;20418;-79
2024/01/06 10:45:32;;;;;;;17.17;15.38;;;;;;;;;;5048349;28;20053;-79
2024/01/06 10:47:58;;;;;;;11.27;9.02;;;;;;;;;;5006252;28;20053;-79
2024/01/06 10:50:24;;;;;;;12.55;9.77;;;;;;;;;;5010335;28;20049;-80
2024/01/06 10:52:51;;;;;;;13.20;9.70;;;;;;;;;;5027888;28;20387;-80
2024/01/06 10:55:18;;;;;;;12.27;10.20;;;;;;;;;;5043366;28;20655;-79
2024/01/06 10:57:45;;;;;;;14.18;10.73;;;;;;;;;;5047861;28;20511;-80
2024/01/06 11:00:11;;;;;;;14.38;10.13;;;;;;;;;;5030533;28;20091;-79
2024/01/06 11:02:38;;;;;;;13.70;9.52;;;;;;;;;;5040115;28;20081;-79
2024/01/06 11:05:07;;;;;;;12.13;9.52;;;;;;;;;;5010292;28;20103;-79
2024/01/06 11:07:34;;;;;;;13.23;9.90;;;;;;;;;;5039422;28;20499;-80
2024/01/06 11:10:02;;;;;;;12.38;9.77;;;;;;;;;;5021666;28;20041;-79
2024/01/06 11:12:28;;;;;;;10.80;8.93;;;;;;;;;;5025398;28;20083;-80
2024/01/06 11:14:54;;;;;;;12.13;9.55;;;;;;;;;;5025412;28;20691;-79
2024/01/06 11:17:39;;;;;;;13.88;10.32;;;;;;;;;;5014040;28;20147;-79
2024/01/06 11:20:06;;;;;;;11.90;10.00;;;;;;;;;;5013932;28;20827;-79
2024/01/06 11:22:33;;;;;;;12.70;9.93;;;;;;;;;;4998488;28;20053;-80
2024/01/06 11:25:07;;;;;;;11.88;9.70;;;;;;;;;;5013993;28;20056;-80
2024/01/06 11:27:33;;;;;;;12.38;9.32;;;;;;;;;;5012884;28;20450;-80
2024/01/06 11:30:00;;;;;;;14.40;10.00;;;;;;;;;;5030194;28;20333;-80
2024/01/06 11:32:30;;;;;;;14.25;10.68;;;;;;;;;;5041528;28;20049;-79
2024/01/06 11:34:58;;;;;;;13.32;9.52;;;;;;;;;;5042180;28;20050;-79
2024/01/06 11:37:25;;;;;;;12.25;9.98;;;;;;;;;;5012752;28;20065;-80
2024/01/06 11:39:53;;;;;;;12.23;9.95;;;;;;;;;;5029093;28;20077;-79
2024/01/06 11:42:19;;;;;;;11.95;9.60;;;;;;;;;;5026123;28;20128;-79
2024/01/06 11:44:45;;;;;;;14.10;10.18;;;;;;;;;;5012805;28;20053;-80
2024/01/06 11:47:12;;;;;;;13.88;10.15;;;;;;;;;;5047274;28;20045;-79
2024/01/06 11:49:38;;;;;;;14.80;12.13;;;;;;;;;;5023614;28;20037;-80
2024/01/06 11:52:05;;;;;;;14.13;10.32;;;;;;;;;;5012703;28;20168;-79
2024/01/06 11:54:31;;;;;;;14.05;11.52;;;;;;;;;;5010608;28;20049;-79
2024/01/06 11:56:57;;;;;;;13.68;10.95;;;;;;;;;;5028019;28;20056;-79
2024/01/06 11:59:24;;;;;;;14.40;10.32;;;;;;;;;;5030507;28;20403;-79
2024/01/06 12:01:51;;;;;;;14.70;10.70;;;;;;;;;;5042128;28;20073;-80
2024/01/06 12:04:17;;;;;;;14.38;11.40;;;;;;;;;;5030018;28;20165;-79
2024/01/06 12:06:43;;;;;;;16.30;13.85;;;;;;;;;;5011740;28;20120;-80
2024/01/06 12:09:16;;;;;;;15.23;11.30;;;;;;;;;;5011764;28;20049;-80
2024/01/06 12:11:45;;;;;;;13.75;10.68;;;;;;;;;;5012091;28;20057;-79
2024/01/06 12:14:11;;;;;;;13.00;10.48;;;;;;;;;;5029463;28;20094;-80
2024/01/06 12:16:37;;;;;;;13.82;10.45;;;;;;;;;;5011983;28;20071;-79
2024/01/06 12:19:03;;;;;;;13.52;10.93;;;;;;;;;;5015336;28;20049;-79
2024/01/06 12:21:30;;;;;;;14.25;10.30;;;;;;;;;;5028733;28;20205;-79
2024/01/06 12:24:12;;;;;;;13.82;11.13;;;;;;;;;;5011249;28;20050;-80
2024/01/06 12:26:41;;;;;;;13.80;10.18;;;;;;;;;;5009089;28;20055;-79
2024/01/06 12:29:07;;;;;;;15.05;10.90;;;;;;;;;;5011075;28;20053;-79
2024/01/06 12:31:33;;;;;;;14.00;10.73;;;;;;;;;;5029541;28;20068;-80
2024/01/06 12:34:00;;;;;;;13.75;11.23;;;;;;;;;;5011601;28;20089;-80
2024/01/06 12:36:26;;;;;;;13.10;10.20;;;;;;;;;;5029468;28;20045;-80
2024/01/06 12:38:52;;;;;;;14.70;11.48;;;;;;;;;;5010798;28;20049;-80
2024/01/06 12:41:18;;;;;;;14.63;10.43;;;;;;;;;;5029377;28;20575;-78
2024/01/06 12:43:44;;;;;;;15.73;11.40;;;;;;;;;;5029265;28;20059;-79
2024/01/06 12:46:10;;;;;;;16.20;11.23;;;;;;;;;;5029688;28;20403;-79
2024/01/06 12:48:36;;;;;;;14.65;11.38;;;;;;;;;;5029230;28;20056;-79
2024/01/06 12:51:02;;;;;;;17.38;12.27;;;;;;;;;;5011149;28;20083;-79
2024/01/06 12:53:28;;;;;;;15.00;11.30;;;;;;;;;;5017211;28;20045;-79
2024/01/06 12:55:54;;;;;;;16.23;13.07;;;;;;;;;;5031465;28;20110;-80
2024/01/06 12:58:20;;;;;;;20.80;17.15;;;;;;;;;;5018297;28;20053;-80
2024/01/06 13:00:46;;;;;;;17.65;12.45;;;;;;;;;;5027167;28;20199;-79
2024/01/06 13:03:14;;;;;;;17.92;12.32;;;;;;;;;;5008579;28;20059;-79